Terminal Aerodrome Forecast
Issued by NWS

Home | Current Version | Previous Version | Text Only | Print | Product List | Glossary On
Versions: 1 2 3 4 5 6 7 8 9 10 11 12 13 14 15 16 17 18 19 20 21 22 23 24 25 26 27 28 29
000
FTUS43 KGLD 201120
TAFMCK
TAF
KMCK 201120Z 2012/2112 18008KT P6SM VCSH FEW050 SCT090 BKN250
     FM201700 18012KT P6SM SCT250
     FM202000 18015G23KT P6SM FEW100 BKN200
     FM202300 18013KT P6SM VCTS BKN100CB
     FM210400 VRB06KT P6SM BKN150=

USA.gov is the U.S. government's official web portal to all federal, state and local government web resources and services.